Latest Coastal Weather Observations for Low Isles

IDQ60701

Issued at 7:12 am EST Monday 2 February 2015 (issued every 10 minutes, with the page automatically refreshed every 10 minutes)

About coastal observations | Map of coastal stations | Coastal observations for QLD | Marine services | Other Formats
Station Details ID: 031037 Name: LOW ISLES LIGHTHOUSE Lat: -16.38 Lon: 145.56 Height: 2.9 m
Data from the previous 72 hours. | See also: Recent months at Low Isles
Date/Time
EST
Temp

°C
Wind Pressure Rain
since 9am
mm
Weather Cloud Vis
km
Sea
Height
m
Swell
Dir
 
Speed
knots
Gust
knots
hPa Trend Height
m
Period
s
Dir
02/07:00am 26.7 W 11 12 1008.1 - 0.6 - - - - - - -
02/06:30am 26.3 W 12 17 1007.7 - 0.6 - - - - - - -
02/06:00am 26.2 WNW 13 14 1007.1 - 0.6 - - - - - - -
02/05:30am 25.5 NNW 10 12 1006.8 - 0.6 - - - - - - -
02/05:00am 25.7 WNW 15 18 1006.7 - 0.6 - - - - - - -
02/04:52am 25.4 WNW 17 20 1006.9 - 0.4 - - - - - - -
02/04:30am 26.0 W 29 35 1006.7 - 0.0 - - - - - - -
02/04:00am 26.6 WSW 26 31 1006.4 - 0.0 - - - - - - -
02/03:45am 27.1 SW 22 31 1006.5 - 0.0 - - - - - - -
02/03:30am 27.7 SW 17 21 1006.5 - 0.0 - - - - - - -
02/03:00am 28.0 WSW 9 11 1006.1 - 0.0 - - - - - - -
02/02:30am 27.9 WSW 9 10 1006.2 - 0.0 - - - - - - -
02/02:00am 28.0 WSW 11 13 1006.5 - 0.0 - - - - - - -
02/01:30am 28.2 WSW 13 14 1007.0 - 0.0 - - - - - - -
02/01:00am 28.8 W 10 13 1007.4 - 0.0 - - - - - - -
02/12:30am 29.0 WNW 9 11 1007.6 - 0.0 - - - - - - -
02/12:00am 29.1 NW 10 11 1007.8 - 0.0 - - - - - - -
 
Date/Time
EST
Temp

°C
Wind Pressure Rain
since 9am
mm
Weather Cloud Vis
km
Sea
Height
m
Swell
Dir
 
Speed
knots
Gust
knots
hPa Trend Height
m
Period
s
Dir
01/11:30pm 29.3 NNW 11 13 1007.9 - 0.0 - - - - - - -
01/11:00pm 29.5 NNW 12 14 1008.1 - 0.0 - - - - - - -
01/10:30pm 29.6 N 11 13 1008.0 - 0.0 - - - - - - -
01/10:00pm 29.5 N 11 13 1007.4 - 0.0 - - - - - - -
01/09:30pm 29.5 N 10 12 1007.3 - 0.0 - - - - - - -
01/09:00pm 29.6 N 10 11 1006.9 - 0.0 - - - - - - -
01/08:30pm 29.5 N 9 10 1006.5 - 0.0 - - - - - - -
01/08:00pm 29.6 N 9 11 1006.0 - 0.0 - - - - - - -
01/07:30pm 29.7 NNE 11 13 1005.7 - 0.0 - - - - - - -
01/07:00pm 30.0 NNE 11 13 1005.4 - 0.0 - - - - - - -
01/06:30pm 30.3 NNE 11 13 1005.0 - 0.0 - - - - - - -
01/06:00pm 31.2 NNE 11 13 1004.7 - 0.0 - - - - - - -
01/05:30pm 31.5 NNE 13 15 1004.4 - 0.0 - - - - - - -
01/05:00pm 32.8 NNE 15 16 1004.3 - 0.0 - - - - - - -
01/04:30pm 33.6 NNE 14 16 1004.3 - 0.0 - - - - - - -
01/04:00pm 34.3 NE 14 15 1004.3 - 0.0 - - - - - - -
01/03:30pm 34.9 NNE 13 15 1004.5 - 0.0 - - - - - - -
01/03:00pm 34.9 NNE 13 14 1004.7 - 0.0 Haze Partly cloudy 20 - - - -
01/02:30pm 34.5 NNE 12 14 1005.2 - 0.0 - - - - - - -
01/02:00pm 35.5 NE 10 11 1005.4 - 0.0 - - - - - - -
01/01:00pm 35.5 NE 8 9 1005.7 - 0.0 - - - - - - -
01/12:30pm - NE 7 8 - - 0.0 - - - - - - -
01/12:00pm 34.7 NE 7 8 1006.5 - 0.0 - - - - - - -
01/11:30am 34.2 NNE 6 7 1007.0 - 0.0 - - - - - - -
01/11:00am 33.4 NNE 5 6 1007.5 - 0.0 - - - - - - -
01/10:30am 32.1 NNW 6 7 1007.7 - 0.0 - - - - - - -
01/10:00am 31.7 WNW 7 8 1008.1 - 0.0 - - - - - - -
01/09:30am 30.3 WNW 10 12 1008.3 - 0.0 - - - - - - -
01/09:00am 29.2 W 9 11 1008.2 - 0.2 Haze Mostly clear 25 - - - -
01/08:30am 28.5 WNW 11 13 1008.0 - 0.0 - - - - - - -
01/08:00am 27.7 WNW 11 13 1007.8 - 0.0 - - - - - - -
01/07:30am 27.3 WNW 11 13 1007.4 - 0.0 - - - - - - -
01/07:00am 27.1 WNW 11 13 1007.3 - 0.0 - - - - - - -
01/06:30am 27.1 WNW 11 12 1007.1 - 0.0 - - - - - - -
01/06:00am 27.0 WNW 15 16 1006.7 - 0.0 - - - - - - -
01/05:30am 27.0 WNW 12 14 1006.5 - 0.0 - - - - - - -
01/05:00am 26.9 WNW 11 12 1006.3 - 0.0 - - - - - - -
01/04:30am 26.9 WNW 11 12 1006.3 - 0.0 - - - - - - -
01/04:00am 26.6 WNW 11 12 1006.2 - 0.0 - - - - - - -
01/03:30am 26.9 WNW 12 14 1006.1 - 0.0 - - - - - - -
01/03:00am 26.8 WNW 12 14 1006.2 - 0.0 - - - - - - -
01/02:30am 26.9 WNW 12 13 1006.5 - 0.0 - - - - - - -
01/02:00am 26.8 WNW 11 12 1006.6 - 0.0 - - - - - - -
01/01:30am 26.6 WNW 13 14 1006.8 - 0.0 - - - - - - -
01/01:00am 26.7 W 8 10 1007.2 - 0.0 - - - - - - -
01/12:30am 26.5 W 9 11 1007.7 - 0.0 - - - - - - -
01/12:00am 26.4 WNW 11 13 1007.9 - 0.0 - - - - - - -
 
Date/Time
EST
Temp

°C
Wind Pressure Rain
since 9am
mm
Weather Cloud Vis
km
Sea
Height
m
Swell
Dir
 
Speed
knots
Gust
knots
hPa Trend Height
m
Period
s
Dir
31/11:30pm 26.6 WNW 11 13 1008.1 - 0.0 - - - - - - -
31/11:00pm 26.9 WNW 11 14 1008.3 - 0.0 - - - - - - -
31/10:30pm 26.9 WNW 13 15 1008.3 - 0.0 - - - - - - -
31/10:00pm 26.9 WNW 11 13 1008.2 - 0.0 - - - - - - -
31/09:30pm 26.9 WNW 14 15 1008.3 - 0.0 - - - - - - -
31/09:00pm 27.5 WNW 8 10 1008.1 - 0.0 - - - - - - -
31/08:30pm 27.3 W 9 12 1008.1 - 0.0 - - - - - - -
31/08:00pm 27.3 W 10 12 1007.9 - 0.0 - - - - - - -
31/07:30pm 27.4 W 5 7 1007.2 - 0.0 - - - - - - -
31/07:00pm 27.3 ESE 5 6 1006.6 - 0.0 - - - - - - -
31/06:30pm 27.9 ESE 8 10 1006.2 - 0.0 - - - - - - -
31/06:00pm 29.1 ESE 8 10 1005.8 - 0.0 - - - - - - -
31/05:30pm 29.6 ESE 12 16 1005.5 - 0.0 - - - - - - -
31/05:00pm 30.3 ESE 13 16 1005.1 - 0.0 - - - - - - -
31/04:30pm 30.1 E 11 14 1005.2 - 0.0 - - - - - - -
31/04:00pm 30.9 ESE 10 13 1004.9 - 0.0 - - - - - - -
31/03:30pm 32.0 E 8 11 1004.8 - 0.0 - - - - - - -
31/03:00pm 31.7 ESE 10 13 1005.1 - 0.0 Distant precip. Mostly cloudy 15 - - - -
31/02:30pm 32.2 E 10 13 1005.3 - 0.0 - - - - - - -
31/02:00pm 33.2 E 10 13 1005.4 - 0.0 - - - - - - -
31/01:30pm 33.8 NE 10 11 1005.5 - 0.0 - - - - - - -
31/01:00pm 33.3 NE 10 12 1005.8 - 0.0 - - - - - - -
31/12:30pm 33.9 NE 9 10 1006.1 - 0.0 - - - - - - -
31/12:00pm 33.3 NE 7 9 1006.2 - 0.0 - - - - - - -
31/11:30am 32.7 NE 8 9 1006.5 - 0.0 - - - - - - -
31/11:00am 32.2 NNE 8 10 1007.0 - 0.0 - - - - - - -
31/10:30am 31.4 NNE 7 8 1007.3 - 0.0 - - - - - - -
31/10:00am 30.6 NNE 4 6 1007.5 - 0.0 - - - - - - -
31/09:30am 29.5 N 4 6 1007.5 - 0.0 - - - - - - -
31/09:00am 28.6 N 6 7 1007.5 - 1.8 Haze Partly cloudy 15 - - - -
31/08:30am 27.9 NW 5 7 1007.5 - 1.8 - - - - - - -
31/08:00am 27.8 WNW 7 8 1007.6 - 1.8 - - - - - - -
31/07:30am 27.2 W 8 9 1007.6 - 1.8 - - - - - - -
31/07:00am 26.0 WNW 1 2 1007.3 - 1.8 - - - - - - -
31/06:30am 25.7 NE 1 3 1007.3 - 1.8 - - - - - - -
31/06:00am 25.6 E 4 5 1007.2 - 1.8 - - - - - - -
31/05:30am 25.6 SE 6 7 1006.9 - 1.8 - - - - - - -
31/05:00am 25.7 ESE 7 8 1006.6 - 1.8 - - - - - - -
31/04:30am 25.7 ESE 7 9 1006.3 - 1.8 - - - - - - -
31/04:00am 25.6 ESE 6 8 1006.3 - 1.8 - - - - - - -
31/03:30am 25.7 ESE 10 13 1006.2 - 1.8 - - - - - - -
31/03:00am 26.1 E 15 18 1006.1 - 1.8 - - - - - - -
31/02:30am 26.3 SSE 14 23 1006.1 - 1.6 - - - - - - -
31/02:00am 28.3 SSE 8 14 1006.0 - 0.0 - - - - - - -
31/01:30am 27.9 SE 4 5 1006.3 - 0.0 - - - - - - -
31/01:00am 28.0 ESE 5 6 1006.6 - 0.0 - - - - - - -
31/12:30am 27.9 SE 5 6 1006.9 - 0.0 - - - - - - -
31/12:00am 28.2 SE 6 7 1006.9 - 0.0 - - - - - - -
 
Date/Time
EST
Temp

°C
Wind Pressure Rain
since 9am
mm
Weather Cloud Vis
km
Sea
Height
m
Swell
Dir
 
Speed
knots
Gust
knots
hPa Trend Height
m
Period
s
Dir
30/11:30pm 28.6 SE 7 8 1007.1 - 0.0 - - - - - - -
30/11:00pm 28.1 ESE 6 7 1007.0 - 0.0 - - - - - - -
30/10:30pm 28.3 ESE 5 7 1006.8 - 0.0 - - - - - - -
30/10:00pm 28.8 SE 7 8 1006.5 - 0.0 - - - - - - -
30/09:30pm 28.9 SE 7 8 1006.4 - 0.0 - - - - - - -
30/09:00pm 28.6 ESE 5 6 1006.2 - 0.0 - - - - - - -
30/08:30pm 28.9 ESE 6 7 1006.3 - 0.0 - - - - - - -
30/08:00pm 29.2 ESE 7 8 1006.0 - 0.0 - - - - - - -
30/07:30pm 29.4 SE 8 9 1005.3 - 0.0 - - - - - - -
30/07:00pm 29.7 ESE 6 8 1004.7 - 0.0 - - - - - - -
30/06:30pm 30.1 SE 9 11 1004.5 - 0.0 - - - - - - -
30/06:00pm 30.5 ESE 10 13 1004.0 - 0.0 - - - - - - -
30/05:30pm 30.9 ESE 11 13 1003.9 - 0.0 - - - - - - -
30/05:00pm 31.6 ESE 11 14 1003.7 - 0.0 - - - - - - -
30/04:30pm 32.1 ESE 9 12 1003.6 - 0.0 - - - - - - -
30/04:00pm 32.7 ESE 9 12 1003.5 - 0.0 - - - - - - -
30/03:30pm 32.8 ESE 11 13 1003.4 - 0.0 - - - - - - -
30/03:00pm 33.4 ESE 11 14 1003.4 - 0.0 Haze Mostly clear 12 - - - -
30/02:30pm 34.1 ESE 11 15 1003.8 - 0.0 - - - - - - -
30/02:00pm 34.3 E 11 14 1003.9 - 0.0 - - - - - - -
30/01:30pm 34.5 E 10 13 1004.2 - 0.0 - - - - - - -
30/01:00pm 34.4 E 10 13 1004.3 - 0.0 - - - - - - -
30/12:30pm 34.6 E 12 14 1004.7 - 0.0 - - - - - - -
30/12:00pm 33.9 E 11 14 1005.0 - 0.0 - - - - - - -
30/11:30am 33.2 E 10 13 1005.4 - 0.0 - - - - - - -
30/11:00am 33.0 E 10 12 1005.7 - 0.0 - - - - - - -
30/10:30am 31.5 SE 8 10 1005.8 - 0.0 - - - - - - -
30/10:00am 30.9 SSE 7 8 1005.9 - 0.0 - - - - - - -
30/09:30am 29.8 S 7 8 1006.0 - 0.0 - - - - - - -
30/09:00am 28.7 SW 7 10 1006.1 - 0.0 Haze Mostly clear 20 - - - -
30/08:30am 28.0 WSW 8 9 1006.0 - 0.0 - - - - - - -
30/08:00am 27.6 WSW 9 11 1005.8 - 0.0 - - - - - - -
30/07:30am 27.6 W 8 9 1005.8 - 0.0 - - - - - - -

Other Formats:

Comma delimited format used in spreadsheet applications
http://www.bom.gov.au/fwo/IDQ60701/IDQ60701.94285.axf

JavaScript Object Notation format (JSON) in row-major order
http://www.bom.gov.au/fwo/IDQ60701/IDQ60701.94285.json